createdAt,value
2024-04-16T00:00:52.272Z,33.35
2024-04-16T00:01:52.325Z,33.35
2024-04-16T00:02:52.352Z,33.32
2024-04-16T00:03:52.269Z,33.35
2024-04-16T00:04:52.355Z,33.35
2024-04-16T00:05:52.287Z,33.35
2024-04-16T00:06:52.303Z,33.36
2024-04-16T00:07:53.106Z,33.35
2024-04-16T00:08:52.326Z,33.30
2024-04-16T00:09:52.344Z,33.35
2024-04-16T00:10:52.431Z,33.31
2024-04-16T00:11:52.367Z,33.32
2024-04-16T00:12:52.378Z,33.28
2024-04-16T00:13:52.413Z,33.25
2024-04-16T00:14:52.418Z,33.22
2024-04-16T00:15:52.424Z,33.25
2024-04-16T00:16:52.498Z,33.28
2024-04-16T00:17:52.525Z,33.23
2024-04-16T00:18:52.463Z,33.21
2024-04-16T00:19:52.484Z,33.24
2024-04-16T00:20:52.509Z,33.16
2024-04-16T00:21:52.535Z,33.28
2024-04-16T00:22:52.550Z,33.16
2024-04-16T00:23:52.561Z,33.15
2024-04-16T00:24:52.576Z,33.12
2024-04-16T00:25:52.613Z,33.19
2024-04-16T00:26:52.615Z,33.18
2024-04-16T00:27:52.648Z,33.15
2024-04-16T00:28:52.659Z,33.13
2024-04-16T00:29:52.676Z,33.13
2024-04-16T00:30:52.695Z,33.13
2024-04-16T00:31:52.764Z,33.11
2024-04-16T00:32:52.737Z,33.03
2024-04-16T00:33:52.749Z,33.11
2024-04-16T00:34:52.773Z,33.07
2024-04-16T00:35:52.797Z,33.09
2024-04-16T00:36:52.798Z,33.11
2024-04-16T00:37:52.824Z,33.06
2024-04-16T00:38:52.855Z,33.09
2024-04-16T00:39:52.850Z,33.02
2024-04-16T00:40:52.876Z,33.05
2024-04-16T00:41:52.897Z,33.02
2024-04-16T00:42:52.923Z,33.02
2024-04-16T00:43:52.936Z,33.03
2024-04-16T00:44:52.997Z,32.98
2024-04-16T00:45:52.981Z,33.01
2024-04-16T00:46:53.014Z,33.01
2024-04-16T00:47:53.121Z,32.98
2024-04-16T00:48:53.035Z,32.94
2024-04-16T00:49:53.056Z,32.96
2024-04-16T00:50:53.092Z,32.95
2024-04-16T00:51:53.111Z,32.98
2024-04-16T00:52:53.116Z,32.97
2024-04-16T00:53:53.127Z,32.99
2024-04-16T00:54:53.147Z,32.97
2024-04-16T00:55:53.159Z,32.94
2024-04-16T00:56:53.186Z,32.98
2024-04-16T00:57:53.216Z,32.95
2024-04-16T00:58:53.233Z,32.95
2024-04-16T00:59:53.282Z,32.94
2024-04-16T01:00:53.393Z,32.92
2024-04-16T01:01:53.330Z,32.94
2024-04-16T01:02:53.356Z,32.92
2024-04-16T01:03:53.370Z,32.94
2024-04-16T01:04:53.402Z,32.94
2024-04-16T01:05:53.391Z,32.89
2024-04-16T01:06:53.418Z,32.89
2024-04-16T01:07:53.444Z,32.89
2024-04-16T01:08:53.454Z,32.91
2024-04-16T01:09:53.482Z,32.91
2024-04-16T01:10:53.527Z,32.89
2024-04-16T01:11:53.510Z,32.85
2024-04-16T01:12:53.532Z,32.85
2024-04-16T01:13:53.547Z,32.86
2024-04-16T01:14:53.579Z,32.85
2024-04-16T01:15:53.589Z,32.84
2024-04-16T01:16:53.610Z,32.81
2024-04-16T01:17:53.660Z,32.82
2024-04-16T01:18:53.666Z,32.79
2024-04-16T01:19:53.684Z,32.78
2024-04-16T01:20:53.689Z,32.79
2024-04-16T01:21:53.718Z,32.76
2024-04-16T01:22:53.738Z,32.82
2024-04-16T01:23:53.751Z,32.76
2024-04-16T01:24:53.775Z,32.74
2024-04-16T01:25:53.777Z,32.74
2024-04-16T01:26:53.809Z,32.75
2024-04-16T01:27:53.830Z,32.71
2024-04-16T01:28:53.857Z,32.68
2024-04-16T01:29:53.862Z,32.72
2024-04-16T01:30:53.864Z,32.68
2024-04-16T01:31:53.959Z,32.69
2024-04-16T01:32:53.943Z,32.68
2024-04-16T01:33:54.000Z,32.71
2024-04-16T01:34:53.954Z,32.71
2024-04-16T01:35:53.968Z,32.74
2024-04-16T01:36:53.990Z,32.67
2024-04-16T01:37:54.008Z,32.72
2024-04-16T01:38:54.021Z,32.62
2024-04-16T01:39:54.041Z,32.67
2024-04-16T01:40:54.044Z,32.65
2024-04-16T01:41:54.068Z,32.67
2024-04-16T01:42:54.063Z,32.59
2024-04-16T01:43:54.076Z,32.64
2024-04-16T01:44:54.102Z,32.62
2024-04-16T01:45:54.106Z,32.62
2024-04-16T01:46:54.134Z,32.62
2024-04-16T01:47:54.239Z,32.57
2024-04-16T01:48:54.142Z,32.66
2024-04-16T01:49:54.160Z,32.59
2024-04-16T01:50:54.172Z,32.59
2024-04-16T01:51:54.187Z,32.62
2024-04-16T01:52:54.194Z,32.61
2024-04-16T01:53:54.199Z,32.55
2024-04-16T01:54:54.215Z,32.59
2024-04-16T01:55:54.254Z,32.59
2024-04-16T01:56:54.241Z,32.53
2024-04-16T01:57:54.259Z,32.55
2024-04-16T01:58:54.300Z,32.55
2024-04-16T01:59:54.288Z,32.53
2024-04-16T02:00:54.298Z,32.57
2024-04-16T02:01:54.385Z,32.52
2024-04-16T02:02:54.352Z,32.51
2024-04-16T02:03:54.365Z,32.55
2024-04-16T02:04:54.391Z,32.52
2024-04-16T02:05:54.360Z,32.46
2024-04-16T02:06:54.359Z,32.48
2024-04-16T02:07:54.382Z,32.46
2024-04-16T02:08:54.383Z,32.45
2024-04-16T02:09:54.398Z,32.45
2024-04-16T02:10:54.411Z,32.45
2024-04-16T02:11:54.429Z,32.42
2024-04-16T02:12:54.440Z,32.41
2024-04-16T02:13:54.441Z,32.41
2024-04-16T02:14:54.449Z,32.34
2024-04-16T02:15:54.458Z,32.37
2024-04-16T02:16:54.465Z,32.38
2024-04-16T02:17:54.569Z,32.37
2024-04-16T02:18:54.499Z,32.39
2024-04-16T02:19:54.507Z,32.37
2024-04-16T02:20:54.523Z,32.41
2024-04-16T02:21:54.528Z,32.38
2024-04-16T02:22:54.544Z,32.35
2024-04-16T02:23:54.539Z,32.31
2024-04-16T02:24:54.553Z,32.37
2024-04-16T02:25:54.558Z,32.27
2024-04-16T02:26:54.568Z,32.28
2024-04-16T02:27:54.571Z,32.28
2024-04-16T02:28:54.578Z,32.28
2024-04-16T02:29:54.595Z,32.25
2024-04-16T02:30:54.616Z,32.26
2024-04-16T02:31:54.667Z,32.22
2024-04-16T02:32:54.673Z,32.22
2024-04-16T02:33:54.641Z,32.28
2024-04-16T02:34:54.658Z,32.25
2024-04-16T02:35:54.658Z,32.22
2024-04-16T02:36:54.663Z,32.19
2024-04-16T02:37:54.676Z,32.21
2024-04-16T02:38:54.688Z,32.18
2024-04-16T02:39:54.704Z,32.14
2024-04-16T02:40:54.730Z,32.18
2024-04-16T02:41:54.724Z,32.20
2024-04-16T02:42:54.754Z,32.15
2024-04-16T02:43:54.746Z,32.15
2024-04-16T02:44:54.759Z,32.15
2024-04-16T02:45:54.765Z,32.14
2024-04-16T02:46:54.832Z,32.15
2024-04-16T02:47:54.859Z,32.11
2024-04-16T02:48:54.809Z,32.07
2024-04-16T02:49:54.839Z,32.10
2024-04-16T02:50:54.828Z,32.07
2024-04-16T02:51:54.840Z,32.08
2024-04-16T02:52:54.853Z,32.11
2024-04-16T02:53:54.872Z,32.05
2024-04-16T02:54:54.899Z,32.01
2024-04-16T02:55:54.937Z,32.02
2024-04-16T02:56:54.956Z,32.01
2024-04-16T02:57:55.001Z,32.01
2024-04-16T02:58:55.009Z,32.01
2024-04-16T02:59:55.041Z,31.97
2024-04-16T03:00:55.066Z,31.97
2024-04-16T03:01:55.131Z,31.97
2024-04-16T03:02:55.286Z,31.98
2024-04-16T03:03:55.156Z,31.94
2024-04-16T03:04:55.189Z,31.95
2024-04-16T03:05:55.211Z,31.92
2024-04-16T03:06:55.236Z,31.94
2024-04-16T03:07:55.263Z,31.91
2024-04-16T03:08:55.295Z,31.84
2024-04-16T03:09:55.334Z,31.85
2024-04-16T03:10:55.366Z,31.91
2024-04-16T03:11:55.372Z,31.91
2024-04-16T03:12:55.389Z,31.88
2024-04-16T03:13:55.416Z,31.84
2024-04-16T03:14:55.450Z,31.86
2024-04-16T03:15:55.511Z,31.84
2024-04-16T03:16:55.594Z,31.81
2024-04-16T03:17:55.521Z,31.81
2024-04-16T03:18:55.539Z,31.80
2024-04-16T03:19:55.556Z,31.84
2024-04-16T03:20:55.578Z,31.80
2024-04-16T03:21:55.595Z,31.80
2024-04-16T03:22:55.632Z,31.73
2024-04-16T03:23:55.662Z,31.73
2024-04-16T03:24:55.667Z,31.69
2024-04-16T03:25:55.703Z,31.76
2024-04-16T03:26:55.730Z,31.71
2024-04-16T03:27:55.737Z,31.73
2024-04-16T03:28:55.780Z,31.66
2024-04-16T03:29:55.794Z,31.67
2024-04-16T03:30:55.812Z,31.70
2024-04-16T03:31:55.878Z,31.67
2024-04-16T03:32:55.888Z,31.69
2024-04-16T03:33:55.889Z,31.66
2024-04-16T03:34:55.942Z,31.61
2024-04-16T03:35:55.970Z,31.67
2024-04-16T03:36:55.948Z,31.67
2024-04-16T03:38:18.000Z,31.63
2024-04-16T03:38:56.015Z,31.62
2024-04-16T03:39:56.026Z,31.59
2024-04-16T03:40:56.042Z,31.59
2024-04-16T03:41:56.058Z,31.58
2024-04-16T03:42:56.058Z,31.57
2024-04-16T03:43:57.292Z,31.52
2024-04-16T03:44:56.076Z,31.55
2024-04-16T03:45:56.084Z,31.55
2024-04-16T03:46:56.099Z,31.54
2024-04-16T03:47:56.144Z,31.50
2024-04-16T03:48:56.115Z,31.48
2024-04-16T03:49:56.122Z,31.52
2024-04-16T03:50:56.163Z,31.46
2024-04-16T03:51:56.144Z,31.46
2024-04-16T03:52:56.164Z,31.49
2024-04-16T03:53:56.175Z,31.45
2024-04-16T03:54:56.204Z,31.49
2024-04-16T03:55:56.198Z,31.43
2024-04-16T03:56:56.219Z,31.48
2024-04-16T03:57:56.215Z,31.49
2024-04-16T03:58:56.219Z,31.40
2024-04-16T03:59:56.242Z,31.45
2024-04-16T04:00:56.297Z,31.44
2024-04-16T04:01:56.255Z,31.43
2024-04-16T04:02:56.286Z,31.41
2024-04-16T04:03:56.265Z,31.44
2024-04-16T04:04:56.302Z,31.39
2024-04-16T04:05:56.283Z,31.44
2024-04-16T04:06:56.281Z,31.39
2024-04-16T04:07:56.278Z,31.41
2024-04-16T04:08:56.285Z,31.39
2024-04-16T04:09:56.299Z,31.38
2024-04-16T04:10:56.337Z,31.37
2024-04-16T04:11:56.296Z,31.38
2024-04-16T04:12:56.304Z,31.32
2024-04-16T04:13:56.322Z,31.39
2024-04-16T04:14:56.331Z,31.37
2024-04-16T04:15:56.339Z,31.39
2024-04-16T04:16:56.359Z,31.32
2024-04-16T04:17:56.491Z,31.27
2024-04-16T04:18:56.369Z,31.28
2024-04-16T04:19:56.380Z,31.31
2024-04-16T04:20:56.399Z,31.32
2024-04-16T04:21:56.402Z,31.25
2024-04-16T04:22:56.431Z,31.27
2024-04-16T04:23:56.431Z,31.27
2024-04-16T04:24:56.441Z,31.30
2024-04-16T04:25:56.449Z,31.27
2024-04-16T04:26:56.454Z,31.25
2024-04-16T04:27:56.492Z,31.25
2024-04-16T04:28:56.482Z,31.25
2024-04-16T04:29:56.494Z,31.25
2024-04-16T04:30:56.508Z,31.25
2024-04-16T04:31:56.557Z,31.24
2024-04-16T04:32:56.559Z,31.29
2024-04-16T04:33:56.550Z,31.25
2024-04-16T04:34:56.543Z,31.25
2024-04-16T04:35:56.566Z,31.25
2024-04-16T04:36:57.236Z,31.24
2024-04-16T04:37:56.573Z,31.19
2024-04-16T04:38:56.582Z,31.25
2024-04-16T04:39:56.592Z,31.21
2024-04-16T04:40:56.595Z,31.20
2024-04-16T04:41:56.622Z,31.17
2024-04-16T04:42:56.684Z,31.21
2024-04-16T04:43:56.632Z,31.18
2024-04-16T04:44:56.661Z,31.18
2024-04-16T04:45:56.666Z,31.20
2024-04-16T04:46:56.670Z,31.20
2024-04-16T04:47:56.908Z,31.17
2024-04-16T04:48:56.695Z,31.20
2024-04-16T04:50:04.036Z,31.22
2024-04-16T04:51:04.032Z,31.20
2024-04-16T04:52:04.125Z,31.12
2024-04-16T04:53:04.162Z,31.17
2024-04-16T04:54:04.095Z,31.14
2024-04-16T04:55:04.186Z,31.14
2024-04-16T04:56:04.138Z,31.07
2024-04-16T04:57:04.163Z,31.17
2024-04-16T04:58:04.250Z,31.11
2024-04-16T04:59:04.199Z,31.11
2024-04-16T05:00:04.259Z,31.11
2024-04-16T05:01:04.359Z,31.10
2024-04-16T05:02:04.421Z,31.08
2024-04-16T05:03:05.311Z,31.08
2024-04-16T05:04:04.412Z,31.10
2024-04-16T05:05:04.312Z,31.11
2024-04-16T05:06:04.326Z,31.05
2024-04-16T05:07:04.380Z,30.91
2024-04-16T05:08:04.385Z,29.76
2024-04-16T05:09:04.419Z,27.00
2024-04-16T05:10:04.506Z,27.16
2024-04-16T05:11:04.588Z,26.71
2024-04-16T05:12:04.456Z,26.60
2024-04-16T05:13:04.500Z,26.17
2024-04-16T05:14:04.493Z,25.74
2024-04-16T05:15:04.511Z,25.39
2024-04-16T05:16:04.588Z,25.20
2024-04-16T05:17:04.574Z,24.89
2024-04-16T05:18:04.621Z,24.74
2024-04-16T05:19:04.642Z,25.78
2024-04-16T05:20:04.630Z,26.18
2024-04-16T05:21:04.661Z,26.09
2024-04-16T05:22:04.701Z,26.24
2024-04-16T05:23:04.710Z,25.43
2024-04-16T05:24:04.717Z,25.44
2024-04-16T05:25:04.758Z,24.92
2024-04-16T05:26:05.601Z,24.98
2024-04-16T05:27:04.763Z,26.14
2024-04-16T05:28:04.860Z,25.95
2024-04-16T05:29:04.822Z,26.24
2024-04-16T05:30:04.839Z,26.27
2024-04-16T05:31:04.989Z,25.92
2024-04-16T05:32:04.919Z,27.91
2024-04-16T05:33:04.908Z,27.47
2024-04-16T05:34:04.925Z,26.92
2024-04-16T05:35:06.046Z,26.67
2024-04-16T05:36:06.625Z,26.70
2024-04-16T05:37:05.638Z,26.18
2024-04-16T05:38:05.015Z,26.05
2024-04-16T05:39:05.636Z,26.00
2024-04-16T05:40:05.062Z,26.12
2024-04-16T05:41:05.068Z,25.68
2024-04-16T05:42:05.076Z,26.78
2024-04-16T05:43:05.226Z,27.23
2024-04-16T05:44:06.088Z,25.57
2024-04-16T05:45:05.129Z,26.07
2024-04-16T05:46:05.235Z,25.85
2024-04-16T05:47:05.163Z,25.78
2024-04-16T05:48:05.347Z,26.08
2024-04-16T05:49:05.295Z,25.82
2024-04-16T05:50:05.227Z,26.21
2024-04-16T05:51:05.335Z,26.01
2024-04-16T05:52:05.393Z,25.84
2024-04-16T05:53:05.441Z,26.01
2024-04-16T05:54:05.519Z,26.23
2024-04-16T05:55:05.611Z,26.07
2024-04-16T05:56:05.671Z,25.80
2024-04-16T05:57:05.753Z,25.82
2024-04-16T05:58:05.860Z,25.58
2024-04-16T05:59:05.897Z,25.72
2024-04-16T06:00:05.967Z,25.20
2024-04-16T06:01:06.092Z,25.40
2024-04-16T06:02:07.784Z,25.56
2024-04-16T06:03:06.561Z,25.34
2024-04-16T06:04:06.209Z,25.06
2024-04-16T06:05:06.150Z,25.13
2024-04-16T06:06:06.141Z,25.20
2024-04-16T06:07:06.185Z,24.66
2024-04-16T06:08:06.201Z,24.90
2024-04-16T06:09:06.198Z,24.84
2024-04-16T06:10:06.232Z,24.59
2024-04-16T06:11:06.241Z,24.56
2024-04-16T06:12:06.314Z,24.24
2024-04-16T06:13:06.331Z,24.63
2024-04-16T06:14:06.365Z,24.22
2024-04-16T06:15:08.058Z,24.14
2024-04-16T06:16:06.591Z,24.07
2024-04-16T06:17:06.560Z,24.28
2024-04-16T06:18:06.614Z,24.34
2024-04-16T06:19:06.690Z,23.98
2024-04-16T06:20:06.712Z,23.63
2024-04-16T06:21:06.759Z,24.04
2024-04-16T06:22:06.816Z,24.21
2024-04-16T06:23:06.854Z,25.25
2024-04-16T06:24:06.919Z,25.04
2024-04-16T06:25:07.003Z,25.22
2024-04-16T06:26:07.659Z,25.40
2024-04-16T06:27:07.096Z,25.23
2024-04-16T06:28:08.163Z,25.09
2024-04-16T06:29:07.210Z,25.05
2024-04-16T06:30:07.240Z,24.08
2024-04-16T06:31:07.330Z,24.40
2024-04-16T06:32:07.372Z,23.95
2024-04-16T06:33:07.395Z,23.76
2024-04-16T06:34:08.076Z,23.64
2024-04-16T06:35:07.475Z,23.43
2024-04-16T06:36:08.077Z,23.48
2024-04-16T06:37:08.177Z,22.87
2024-04-16T06:38:07.628Z,23.26
2024-04-16T06:39:07.644Z,22.37
2024-04-16T06:40:07.801Z,22.61
2024-04-16T06:41:07.736Z,22.76
2024-04-16T06:42:07.785Z,22.24
2024-04-16T06:43:07.874Z,22.11
2024-04-16T06:44:07.920Z,22.00
2024-04-16T06:45:08.573Z,21.82
2024-04-16T06:46:08.030Z,22.13
2024-04-16T06:47:08.038Z,21.85
2024-04-16T06:48:08.207Z,21.86
2024-04-16T06:49:13.873Z,22.13
2024-04-16T06:50:09.195Z,22.42
2024-04-16T06:51:08.184Z,21.75
2024-04-16T06:52:08.227Z,21.88
2024-04-16T06:53:08.263Z,21.53
2024-04-16T06:54:08.235Z,21.74
2024-04-16T06:55:08.282Z,22.18
2024-04-16T06:56:08.267Z,21.54
2024-04-16T06:57:09.157Z,21.74
2024-04-16T06:58:09.329Z,21.96
2024-04-16T06:59:09.158Z,21.45
2024-04-16T07:00:09.188Z,21.74
2024-04-16T07:01:08.417Z,21.80
2024-04-16T07:02:08.426Z,21.63
2024-04-16T07:03:08.426Z,22.15
2024-04-16T07:04:08.489Z,21.51
2024-04-16T07:05:08.434Z,21.97
2024-04-16T07:06:08.464Z,21.44
2024-04-16T07:07:08.723Z,21.78
2024-04-16T07:08:08.472Z,21.33
2024-04-16T07:09:09.160Z,22.04
2024-04-16T07:10:08.538Z,22.30
2024-04-16T07:11:08.540Z,21.60
2024-04-16T07:12:08.558Z,22.24
2024-04-16T07:13:08.612Z,21.92
2024-04-16T07:14:08.588Z,21.80
2024-04-16T07:15:08.611Z,21.65
2024-04-16T07:16:08.704Z,22.92
2024-04-16T07:17:08.713Z,22.81
2024-04-16T07:18:08.764Z,23.09
2024-04-16T07:19:08.691Z,22.59
2024-04-16T07:20:09.657Z,21.63
2024-04-16T07:21:08.714Z,22.23
2024-04-16T07:22:08.764Z,21.19
2024-04-16T07:23:08.734Z,22.39
2024-04-16T07:24:08.789Z,21.26
2024-04-16T07:25:09.712Z,22.22
2024-04-16T07:26:08.756Z,20.84
2024-04-16T07:27:08.800Z,21.61
2024-04-16T07:28:08.805Z,20.44
2024-04-16T07:29:08.805Z,21.39
2024-04-16T07:30:08.828Z,20.36
2024-04-16T07:32:09.034Z,20.04
2024-04-16T07:33:09.396Z,20.09
2024-04-16T07:34:09.226Z,19.74
2024-04-16T07:35:09.231Z,19.31
2024-04-16T07:36:09.291Z,20.05
2024-04-16T07:37:09.382Z,19.73
2024-04-16T07:38:09.409Z,19.84
2024-04-16T07:39:09.446Z,18.91
2024-04-16T07:40:09.507Z,19.53
2024-04-16T07:41:09.519Z,18.67
2024-04-16T07:42:09.537Z,19.30
2024-04-16T07:43:09.620Z,18.58
2024-04-16T07:44:09.595Z,19.30
2024-04-16T07:45:09.609Z,18.64
2024-04-16T07:46:09.641Z,19.24
2024-04-16T07:47:09.715Z,18.56
2024-04-16T07:48:09.835Z,19.09
2024-04-16T07:49:09.796Z,18.43
2024-04-16T07:50:09.748Z,19.09
2024-04-16T07:51:10.596Z,18.42
2024-04-16T07:52:09.824Z,18.89
2024-04-16T07:53:09.823Z,18.10
2024-04-16T07:54:09.886Z,18.73
2024-04-16T07:55:09.909Z,17.84
2024-04-16T07:56:09.924Z,18.64
2024-04-16T07:57:09.980Z,17.84
2024-04-16T07:58:10.054Z,17.87
2024-04-16T07:59:10.051Z,18.49
2024-04-16T08:00:10.087Z,18.44
2024-04-16T08:01:11.132Z,18.43
2024-04-16T08:02:10.315Z,18.28
2024-04-16T08:03:10.394Z,18.11
2024-04-16T08:04:10.422Z,18.26
2024-04-16T08:05:10.348Z,18.12
2024-04-16T08:06:10.350Z,18.03
2024-04-16T08:07:10.404Z,18.02
2024-04-16T08:08:14.650Z,17.96
2024-04-16T08:09:11.466Z,17.91
2024-04-16T08:10:10.509Z,17.85
2024-04-16T08:11:10.533Z,17.76
2024-04-16T08:12:10.538Z,17.70
2024-04-16T08:13:10.580Z,17.62
2024-04-16T08:14:10.568Z,18.30
2024-04-16T08:15:10.613Z,18.30
2024-04-16T08:16:10.921Z,18.60
2024-04-16T08:17:10.822Z,18.60
2024-04-16T08:18:10.685Z,18.65
2024-04-16T08:19:11.342Z,19.17
2024-04-16T08:20:10.888Z,19.32
2024-04-16T08:21:11.620Z,19.70
2024-04-16T08:22:13.334Z,19.55
2024-04-16T08:23:10.792Z,19.14
2024-04-16T08:24:10.798Z,18.82
2024-04-16T08:25:10.867Z,18.09
2024-04-16T08:26:12.737Z,18.05
2024-04-16T08:27:11.112Z,17.89
2024-04-16T08:28:11.237Z,18.04
2024-04-16T08:29:12.109Z,17.56
2024-04-16T08:30:12.384Z,17.31
2024-04-16T08:31:11.448Z,17.58
2024-04-16T08:32:12.218Z,16.97
2024-04-16T08:33:11.607Z,16.97
2024-04-16T08:34:11.676Z,16.86
2024-04-16T08:35:11.711Z,16.54
2024-04-16T08:36:11.859Z,16.44
2024-04-16T08:37:11.815Z,16.60
2024-04-16T08:38:12.456Z,16.38
2024-04-16T08:39:11.916Z,16.21
2024-04-16T08:40:11.919Z,16.21
2024-04-16T08:41:11.974Z,16.33
2024-04-16T08:42:12.015Z,16.22
2024-04-16T08:43:12.116Z,16.11
2024-04-16T08:44:12.168Z,16.36
2024-04-16T08:45:12.338Z,16.15
2024-04-16T08:46:12.270Z,16.03
2024-04-16T08:47:12.309Z,15.93
2024-04-16T08:48:12.407Z,15.95
2024-04-16T08:49:12.357Z,15.62
2024-04-16T08:50:12.385Z,15.69
2024-04-16T08:51:12.435Z,15.48
2024-04-16T08:52:12.506Z,15.39
2024-04-16T08:53:12.536Z,15.50
2024-04-16T08:54:12.568Z,15.50
2024-04-16T08:55:12.621Z,15.88
2024-04-16T08:56:12.715Z,15.62
2024-04-16T08:57:12.767Z,15.60
2024-04-16T08:58:34.810Z,15.57
2024-04-16T08:59:12.829Z,14.98
2024-04-16T09:00:12.868Z,15.12
2024-04-16T09:01:13.051Z,14.95
2024-04-16T09:02:12.945Z,14.81
2024-04-16T09:03:13.651Z,14.54
2024-04-16T09:04:13.102Z,14.71
2024-04-16T09:05:13.089Z,14.57
2024-04-16T09:06:13.035Z,14.24
2024-04-16T09:07:13.066Z,14.33
2024-04-16T09:08:13.134Z,14.13
2024-04-16T09:09:13.100Z,13.85
2024-04-16T09:10:13.240Z,13.87
2024-04-16T09:11:13.247Z,13.98
2024-04-16T09:12:13.219Z,13.81
2024-04-16T09:13:13.286Z,14.34
2024-04-16T09:14:13.274Z,14.64
2024-04-16T09:15:13.332Z,14.47
2024-04-16T09:16:13.376Z,14.05
2024-04-16T09:17:13.429Z,14.78
2024-04-16T09:18:13.388Z,15.71
2024-04-16T09:19:13.409Z,15.23
2024-04-16T09:20:14.157Z,15.37
2024-04-16T09:21:13.450Z,15.61
2024-04-16T09:22:13.506Z,16.33
2024-04-16T09:23:15.170Z,16.97
2024-04-16T09:24:13.538Z,17.09
2024-04-16T09:25:13.621Z,18.13
2024-04-16T09:26:13.620Z,17.34
2024-04-16T09:27:13.650Z,17.28
2024-04-16T09:28:14.475Z,18.35
2024-04-16T09:29:13.676Z,18.07
2024-04-16T09:30:13.702Z,18.63
2024-04-16T09:31:13.749Z,19.03
2024-04-16T09:32:13.758Z,19.05
2024-04-16T09:33:17.784Z,19.19
2024-04-16T09:34:17.082Z,19.18
2024-04-16T09:35:13.785Z,19.38
2024-04-16T09:36:13.815Z,19.40
2024-04-16T09:37:13.842Z,19.44
2024-04-16T09:38:13.877Z,19.33
2024-04-16T09:39:13.863Z,19.37
2024-04-16T09:40:13.970Z,19.48
2024-04-16T09:41:13.912Z,19.56
2024-04-16T09:42:13.923Z,19.94
2024-04-16T09:43:13.977Z,19.74
2024-04-16T09:44:13.994Z,19.76
2024-04-16T09:45:14.003Z,19.60
2024-04-16T09:46:14.205Z,19.21
2024-04-16T09:47:14.128Z,19.35
2024-04-16T09:48:14.310Z,19.15
2024-04-16T09:49:15.265Z,19.71
2024-04-16T09:50:21.819Z,19.67
2024-04-16T09:51:15.534Z,19.68
2024-04-16T09:52:14.360Z,19.59
2024-04-16T09:53:16.504Z,19.61
2024-04-16T09:54:14.456Z,19.63
2024-04-16T09:55:14.537Z,19.53
2024-04-16T09:56:14.609Z,19.93
2024-04-16T09:57:14.671Z,19.20
2024-04-16T09:58:14.747Z,19.54
2024-04-16T09:59:14.805Z,19.42
2024-04-16T10:00:15.673Z,19.25
2024-04-16T10:01:15.790Z,19.18
2024-04-16T10:02:15.033Z,19.13
2024-04-16T10:03:15.109Z,19.42
2024-04-16T10:04:15.227Z,19.61
2024-04-16T10:05:15.240Z,19.62
2024-04-16T10:06:15.318Z,19.54
2024-04-16T10:07:15.396Z,19.59
2024-04-16T10:08:17.265Z,19.50
2024-04-16T10:09:15.548Z,19.67
2024-04-16T10:10:15.770Z,19.14
2024-04-16T10:11:22.138Z,19.15
2024-04-16T10:12:16.738Z,18.89
2024-04-16T10:13:15.751Z,18.11
2024-04-16T10:14:16.211Z,17.53
2024-04-16T10:15:15.774Z,16.53
2024-04-16T10:16:15.815Z,16.85
2024-04-16T10:17:15.809Z,16.89
2024-04-16T10:18:15.972Z,16.60
2024-04-16T10:19:15.840Z,16.28
2024-04-16T10:20:15.844Z,16.30
2024-04-16T10:21:15.886Z,15.83
2024-04-16T10:22:15.944Z,15.74
2024-04-16T10:23:15.967Z,15.77
2024-04-16T10:24:15.971Z,15.73
2024-04-16T10:25:15.990Z,15.51
2024-04-16T10:26:16.006Z,15.37
2024-04-16T10:27:16.035Z,15.29
2024-04-16T10:28:16.062Z,15.14
2024-04-16T10:29:16.069Z,15.26
2024-04-16T10:30:16.084Z,15.01
2024-04-16T10:31:16.132Z,14.95
2024-04-16T10:32:16.168Z,15.39
2024-04-16T10:33:16.301Z,15.69
2024-04-16T10:34:16.314Z,15.95
2024-04-16T10:35:16.338Z,15.95
2024-04-16T10:36:16.406Z,16.04
2024-04-16T10:37:16.498Z,15.93
2024-04-16T10:38:16.559Z,15.98
2024-04-16T10:39:16.665Z,16.02
2024-04-16T10:40:16.751Z,16.13
2024-04-16T10:41:16.799Z,16.13
2024-04-16T10:42:16.875Z,16.13
2024-04-16T10:43:19.643Z,16.16
2024-04-16T10:44:16.966Z,16.25
2024-04-16T10:45:16.996Z,16.22
2024-04-16T10:46:17.094Z,16.19
2024-04-16T10:47:17.135Z,16.34
2024-04-16T10:48:17.028Z,16.43
2024-04-16T10:49:17.103Z,16.44
2024-04-16T10:50:17.078Z,16.55
2024-04-16T10:51:17.085Z,16.60
2024-04-16T10:52:17.147Z,16.60
2024-04-16T10:53:17.139Z,16.61
2024-04-16T10:54:17.157Z,16.69
2024-04-16T10:55:17.267Z,16.74
2024-04-16T10:56:17.186Z,16.77
2024-04-16T10:57:17.224Z,16.78
2024-04-16T10:58:17.254Z,16.83
2024-04-16T10:59:17.217Z,16.81
2024-04-16T11:00:17.335Z,16.87
2024-04-16T11:01:17.405Z,16.86
2024-04-16T11:02:17.458Z,16.92
2024-04-16T11:03:17.580Z,16.94
2024-04-16T11:04:17.674Z,16.98
2024-04-16T11:05:17.736Z,17.01
2024-04-16T11:06:17.785Z,17.03
2024-04-16T11:07:17.909Z,17.12
2024-04-16T11:08:17.952Z,17.15
2024-04-16T11:09:18.038Z,17.18
2024-04-16T11:10:18.144Z,17.19
2024-04-16T11:11:18.239Z,17.18
2024-04-16T11:12:18.269Z,17.22
2024-04-16T11:13:18.384Z,17.24
2024-04-16T11:14:18.427Z,17.21
2024-04-16T11:15:18.507Z,18.61
2024-04-16T11:16:18.599Z,18.13
2024-04-16T11:17:18.741Z,18.58
2024-04-16T11:18:18.878Z,19.09
2024-04-16T11:19:18.930Z,20.04
2024-04-16T11:20:18.935Z,19.47
2024-04-16T11:21:19.009Z,19.20
2024-04-16T11:22:19.114Z,20.23
2024-04-16T11:23:19.172Z,21.82
2024-04-16T11:24:19.228Z,21.08
2024-04-16T11:25:19.426Z,21.36
2024-04-16T11:26:19.354Z,21.56
2024-04-16T11:27:19.397Z,21.29
2024-04-16T11:28:19.500Z,20.89
2024-04-16T11:29:19.541Z,20.77
2024-04-16T11:30:19.628Z,20.64
2024-04-16T11:31:19.811Z,20.59
2024-04-16T11:32:19.850Z,20.60
2024-04-16T11:33:23.417Z,20.62
2024-04-16T11:34:21.798Z,20.66
2024-04-16T11:35:19.935Z,20.66
2024-04-16T11:36:19.921Z,20.67
2024-04-16T11:37:19.977Z,20.73
2024-04-16T11:38:19.952Z,20.73
2024-04-16T11:39:19.975Z,20.73
2024-04-16T11:40:20.058Z,20.79
2024-04-16T11:41:20.948Z,20.74
2024-04-16T11:42:20.099Z,20.76
2024-04-16T11:43:20.230Z,20.86
2024-04-16T11:44:20.264Z,20.86
2024-04-16T11:45:20.314Z,20.86
2024-04-16T11:46:20.449Z,20.89
2024-04-16T11:47:20.622Z,20.86
2024-04-16T11:48:20.766Z,20.86
2024-04-16T11:49:20.692Z,20.88
2024-04-16T11:50:20.717Z,20.92
2024-04-16T11:51:20.818Z,20.95
2024-04-16T11:52:20.922Z,20.98
2024-04-16T11:53:20.936Z,20.97
2024-04-16T11:54:21.010Z,20.94
2024-04-16T11:55:21.161Z,20.97
2024-04-16T11:56:21.148Z,21.01
2024-04-16T11:57:21.216Z,21.00
2024-04-16T11:58:21.302Z,21.01
2024-04-16T11:59:21.383Z,21.06
2024-04-16T12:00:21.462Z,21.03
2024-04-16T12:01:21.638Z,21.04
2024-04-16T12:02:21.626Z,21.04
2024-04-16T12:03:21.821Z,21.09
2024-04-16T12:04:21.850Z,21.12
2024-04-16T12:05:22.033Z,21.21
2024-04-16T12:06:21.937Z,21.20
2024-04-16T12:07:22.043Z,21.21
2024-04-16T12:08:22.079Z,21.21
2024-04-16T12:09:22.182Z,21.32
2024-04-16T12:10:22.296Z,21.33
2024-04-16T12:11:22.337Z,21.33
2024-04-16T12:12:22.402Z,21.32
2024-04-16T12:13:22.616Z,21.36
2024-04-16T12:14:22.570Z,21.33
2024-04-16T12:15:22.644Z,21.30
2024-04-16T12:16:22.745Z,21.39
2024-04-16T12:17:22.771Z,21.31
2024-04-16T12:18:22.853Z,21.35
2024-04-16T12:19:22.956Z,21.38
2024-04-16T12:20:23.006Z,21.36
2024-04-16T12:21:23.089Z,21.45
2024-04-16T12:22:23.171Z,21.43
2024-04-16T12:23:23.238Z,21.41
2024-04-16T12:24:23.327Z,21.45
2024-04-16T12:25:23.427Z,21.48
2024-04-16T12:26:23.452Z,21.48
2024-04-16T12:27:23.532Z,21.51
2024-04-16T12:28:23.627Z,21.53
2024-04-16T12:29:23.670Z,21.54
2024-04-16T12:30:23.704Z,21.56
2024-04-16T12:31:23.799Z,21.57
2024-04-16T12:32:23.942Z,21.54
2024-04-16T12:33:23.951Z,21.53
2024-04-16T12:34:23.989Z,21.57
2024-04-16T12:35:24.002Z,21.57
2024-04-16T12:36:24.062Z,21.57
2024-04-16T12:37:24.255Z,21.62
2024-04-16T12:38:24.175Z,21.66
2024-04-16T12:39:24.222Z,21.66
2024-04-16T12:40:26.028Z,21.66
2024-04-16T12:41:24.340Z,21.68
2024-04-16T12:42:24.386Z,21.71
2024-04-16T12:43:24.484Z,21.64
2024-04-16T12:44:24.514Z,21.72
2024-04-16T12:45:24.556Z,21.72
2024-04-16T12:46:24.638Z,21.71
2024-04-16T12:47:24.717Z,21.75
2024-04-16T12:48:24.877Z,21.74
2024-04-16T12:49:24.926Z,21.78
2024-04-16T12:50:24.915Z,21.80
2024-04-16T12:51:24.925Z,21.81
2024-04-16T12:52:24.970Z,21.84
2024-04-16T12:53:24.967Z,21.89
2024-04-16T12:54:24.984Z,21.87